sensor_id;sensor_type;location;lat;lon;timestamp;P1;durP1;ratioP1;P2;durP2;ratioP2
70927;SDS011;58587;53.034;18.576;2023-08-12T19:24:20;7.75;;;3.20;;
70927;SDS011;58587;53.034;18.576;2023-08-12T19:26:45;4.93;;;3.10;;
70927;SDS011;58587;53.034;18.576;2023-08-12T19:29:10;6.87;;;3.60;;
70927;SDS011;58587;53.034;18.576;2023-08-12T19:31:36;10.05;;;3.85;;
70927;SDS011;58587;53.034;18.576;2023-08-12T19:34:01;5.73;;;3.57;;
70927;SDS011;58587;53.034;18.576;2023-08-12T19:36:26;6.57;;;3.63;;
70927;SDS011;58587;53.034;18.576;2023-08-12T19:38:52;7.43;;;3.77;;
70927;SDS011;58587;53.034;18.576;2023-08-12T19:41:17;8.40;;;3.87;;
70927;SDS011;58587;53.034;18.576;2023-08-12T19:43:42;7.60;;;3.70;;
70927;SDS011;58587;53.034;18.576;2023-08-12T19:46:08;10.60;;;3.87;;
70927;SDS011;58587;53.034;18.576;2023-08-12T19:48:33;8.73;;;3.63;;
70927;SDS011;58587;53.034;18.576;2023-08-12T19:50:58;8.47;;;3.80;;
70927;SDS011;58587;53.034;18.576;2023-08-12T19:53:24;8.73;;;3.70;;
70927;SDS011;58587;53.034;18.576;2023-08-12T19:55:49;7.63;;;4.50;;
70927;SDS011;58587;53.034;18.576;2023-08-12T19:58:16;11.30;;;4.70;;
70927;SDS011;58587;53.034;18.576;2023-08-12T20:00:41;8.40;;;4.60;;
70927;SDS011;58587;53.034;18.576;2023-08-12T20:03:07;8.50;;;3.63;;
70927;SDS011;58587;53.034;18.576;2023-08-12T20:05:32;9.02;;;4.40;;
70927;SDS011;58587;53.034;18.576;2023-08-12T20:07:58;10.77;;;4.13;;
70927;SDS011;58587;53.034;18.576;2023-08-12T20:10:23;7.33;;;3.50;;
70927;SDS011;58587;53.034;18.576;2023-08-12T20:12:50;7.68;;;3.50;;
70927;SDS011;58587;53.034;18.576;2023-08-12T20:15:15;8.18;;;3.67;;
70927;SDS011;58587;53.034;18.576;2023-08-12T20:17:41;7.13;;;3.77;;
70927;SDS011;58587;53.034;18.576;2023-08-12T20:20:08;8.50;;;4.00;;
70927;SDS011;58587;53.034;18.576;2023-08-12T20:22:37;9.25;;;3.90;;
70927;SDS011;58587;53.034;18.576;2023-08-12T20:25:03;8.63;;;4.10;;
70927;SDS011;58587;53.034;18.576;2023-08-12T20:27:30;9.83;;;4.50;;
70927;SDS011;58587;53.034;18.576;2023-08-12T20:29:55;7.60;;;4.57;;
70927;SDS011;58587;53.034;18.576;2023-08-12T20:32:20;9.20;;;4.13;;
70927;SDS011;58587;53.034;18.576;2023-08-12T20:34:52;8.50;;;3.85;;
70927;SDS011;58587;53.034;18.576;2023-08-12T20:37:18;8.27;;;3.80;;
70927;SDS011;58587;53.034;18.576;2023-08-12T20:39:43;11.60;;;3.87;;
70927;SDS011;58587;53.034;18.576;2023-08-12T20:42:08;11.77;;;4.13;;
70927;SDS011;58587;53.034;18.576;2023-08-12T20:44:34;10.90;;;4.07;;
70927;SDS011;58587;53.034;18.576;2023-08-12T20:46:59;9.53;;;4.30;;
70927;SDS011;58587;53.034;18.576;2023-08-12T20:49:24;7.53;;;4.37;;
70927;SDS011;58587;53.034;18.576;2023-08-12T20:51:50;9.90;;;4.23;;
70927;SDS011;58587;53.034;18.576;2023-08-12T20:54:15;7.10;;;3.80;;
70927;SDS011;58587;53.034;18.576;2023-08-12T20:56:40;8.43;;;4.27;;
70927;SDS011;58587;53.034;18.576;2023-08-12T20:59:06;11.10;;;4.10;;
70927;SDS011;58587;53.034;18.576;2023-08-12T21:01:32;7.60;;;3.92;;
70927;SDS011;58587;53.034;18.576;2023-08-12T21:03:57;6.17;;;3.70;;
70927;SDS011;58587;53.034;18.576;2023-08-12T21:06:22;9.67;;;3.43;;
70927;SDS011;58587;53.034;18.576;2023-08-12T21:08:48;4.60;;;3.20;;
70927;SDS011;58587;53.034;18.576;2023-08-12T21:11:13;7.03;;;3.60;;
70927;SDS011;58587;53.034;18.576;2023-08-12T21:13:38;5.67;;;3.50;;
70927;SDS011;58587;53.034;18.576;2023-08-12T21:16:03;7.10;;;3.40;;
70927;SDS011;58587;53.034;18.576;2023-08-12T21:18:29;8.35;;;3.08;;
70927;SDS011;58587;53.034;18.576;2023-08-12T21:20:54;11.17;;;3.67;;
70927;SDS011;58587;53.034;18.576;2023-08-12T21:23:19;5.63;;;3.53;;
70927;SDS011;58587;53.034;18.576;2023-08-12T21:25:45;7.13;;;3.40;;
70927;SDS011;58587;53.034;18.576;2023-08-12T21:28:11;5.97;;;3.30;;
70927;SDS011;58587;53.034;18.576;2023-08-12T21:30:36;6.90;;;3.50;;
70927;SDS011;58587;53.034;18.576;2023-08-12T21:33:02;9.07;;;4.00;;
70927;SDS011;58587;53.034;18.576;2023-08-12T21:35:27;11.32;;;4.75;;
70927;SDS011;58587;53.034;18.576;2023-08-12T21:37:53;8.77;;;4.27;;
70927;SDS011;58587;53.034;18.576;2023-08-12T21:40:18;7.40;;;3.40;;
70927;SDS011;58587;53.034;18.576;2023-08-12T21:42:43;7.03;;;3.40;;
70927;SDS011;58587;53.034;18.576;2023-08-12T21:45:09;7.87;;;3.70;;
70927;SDS011;58587;53.034;18.576;2023-08-12T21:47:35;10.02;;;3.95;;
70927;SDS011;58587;53.034;18.576;2023-08-12T21:50:00;6.67;;;3.50;;
70927;SDS011;58587;53.034;18.576;2023-08-12T21:52:25;7.77;;;3.50;;
70927;SDS011;58587;53.034;18.576;2023-08-12T21:54:51;7.37;;;4.17;;
70927;SDS011;58587;53.034;18.576;2023-08-12T21:57:16;7.63;;;4.05;;
70927;SDS011;58587;53.034;18.576;2023-08-12T21:59:41;6.30;;;3.53;;
70927;SDS011;58587;53.034;18.576;2023-08-12T22:02:07;6.87;;;3.63;;
70927;SDS011;58587;53.034;18.576;2023-08-12T22:04:32;7.70;;;2.90;;
70927;SDS011;58587;53.034;18.576;2023-08-12T22:06:58;6.05;;;3.35;;
70927;SDS011;58587;53.034;18.576;2023-08-12T22:09:23;6.00;;;3.23;;
70927;SDS011;58587;53.034;18.576;2023-08-12T22:11:50;6.25;;;3.25;;
70927;SDS011;58587;53.034;18.576;2023-08-12T22:14:15;9.37;;;3.50;;
70927;SDS011;58587;53.034;18.576;2023-08-12T22:16:40;5.63;;;3.30;;
70927;SDS011;58587;53.034;18.576;2023-08-12T22:19:05;6.97;;;3.00;;
70927;SDS011;58587;53.034;18.576;2023-08-12T22:21:31;6.70;;;3.20;;
70927;SDS011;58587;53.034;18.576;2023-08-12T22:23:56;6.55;;;3.45;;
70927;SDS011;58587;53.034;18.576;2023-08-12T22:26:21;7.00;;;3.33;;
70927;SDS011;58587;53.034;18.576;2023-08-12T22:28:47;6.80;;;3.53;;
70927;SDS011;58587;53.034;18.576;2023-08-12T22:31:12;9.00;;;3.43;;
70927;SDS011;58587;53.034;18.576;2023-08-12T22:33:38;4.83;;;2.90;;
70927;SDS011;58587;53.034;18.576;2023-08-12T22:36:03;6.13;;;3.40;;
70927;SDS011;58587;53.034;18.576;2023-08-12T22:38:29;5.75;;;2.92;;
70927;SDS011;58587;53.034;18.576;2023-08-12T22:40:54;4.50;;;2.77;;
70927;SDS011;58587;53.034;18.576;2023-08-12T22:43:20;8.65;;;3.55;;
70927;SDS011;58587;53.034;18.576;2023-08-12T22:45:47;6.87;;;3.20;;
70927;SDS011;58587;53.034;18.576;2023-08-12T22:48:13;7.03;;;3.30;;
70927;SDS011;58587;53.034;18.576;2023-08-12T22:50:39;5.77;;;2.90;;
70927;SDS011;58587;53.034;18.576;2023-08-12T22:53:04;8.73;;;3.07;;
70927;SDS011;58587;53.034;18.576;2023-08-12T22:55:29;6.10;;;2.97;;
70927;SDS011;58587;53.034;18.576;2023-08-12T22:57:55;8.07;;;3.33;;
70927;SDS011;58587;53.034;18.576;2023-08-12T23:00:20;8.70;;;3.30;;
70927;SDS011;58587;53.034;18.576;2023-08-12T23:02:46;6.60;;;3.13;;
70927;SDS011;58587;53.034;18.576;2023-08-12T23:05:11;4.27;;;3.20;;
70927;SDS011;58587;53.034;18.576;2023-08-12T23:07:36;6.05;;;3.72;;
70927;SDS011;58587;53.034;18.576;2023-08-12T23:10:02;6.13;;;3.20;;
70927;SDS011;58587;53.034;18.576;2023-08-12T23:12:27;5.20;;;3.20;;
70927;SDS011;58587;53.034;18.576;2023-08-12T23:14:53;7.13;;;3.40;;
70927;SDS011;58587;53.034;18.576;2023-08-12T23:17:19;6.38;;;3.47;;
70927;SDS011;58587;53.034;18.576;2023-08-12T23:19:44;7.10;;;3.30;;
70927;SDS011;58587;53.034;18.576;2023-08-12T23:22:10;8.15;;;3.10;;
70927;SDS011;58587;53.034;18.576;2023-08-12T23:24:35;6.80;;;2.90;;
70927;SDS011;58587;53.034;18.576;2023-08-12T23:27:01;6.13;;;3.30;;
70927;SDS011;58587;53.034;18.576;2023-08-12T23:29:26;6.28;;;3.17;;
70927;SDS011;58587;53.034;18.576;2023-08-12T23:31:51;7.53;;;3.43;;
70927;SDS011;58587;53.034;18.576;2023-08-12T23:34:17;7.23;;;3.67;;
70927;SDS011;58587;53.034;18.576;2023-08-12T23:36:42;4.23;;;3.10;;
70927;SDS011;58587;53.034;18.576;2023-08-12T23:39:07;4.30;;;3.60;;
70927;SDS011;58587;53.034;18.576;2023-08-12T23:41:34;5.13;;;3.65;;
70927;SDS011;58587;53.034;18.576;2023-08-12T23:44:00;5.27;;;3.33;;
70927;SDS011;58587;53.034;18.576;2023-08-12T23:46:25;5.70;;;3.80;;
70927;SDS011;58587;53.034;18.576;2023-08-12T23:48:50;7.43;;;4.17;;
70927;SDS011;58587;53.034;18.576;2023-08-12T23:51:16;7.77;;;4.10;;
70927;SDS011;58587;53.034;18.576;2023-08-12T23:53:41;8.23;;;4.40;;
70927;SDS011;58587;53.034;18.576;2023-08-12T23:56:06;5.53;;;3.40;;
70927;SDS011;58587;53.034;18.576;2023-08-12T23:58:32;5.40;;;4.27;;
